Bradford Regional Airport Bradford US
ICAO: KBFD
IATA: BFD
Category: Medium
Scheduled Services: Yes

Elevation: 2143 ft
TransAlt. 18000 ft.

Airport Communications:
ASOS:133.825
CLEVELAND CNTR:124.325
ALTOONA RDO:122.2
CTAF/UNICOM:123.075

KBFD Zoom In..

Runways:

(A) RW 05 length 4499 ft width 100 ft
---- / hdg 55

(B) RW 14 length 6306 ft width 150 ft
---- / hdg 145

(C) RW 23 length 4499 ft width 100 ft
---- / hdg 235

(D) RW 32 length 6306 ft width 150 ft
ILS 108.30 / hdg 325

Location; KBFD
Day. 24 / Time. 01.58 Zulu
* Altimeter: 29.71
* Temperature: 00° c. 32°f.
* Wind from: 280° Speed 12 kn with Gusts up to 17 kn.
Dewpoint: -01° c.
Visibility: 2 m.
Clouds: Broken 1000 ft.
Clouds: Overcast 1600 ft.
Conditions: Light Snow.Conditions: Mist.

KBFD 240158Z AUTO 28012G17KT 2 1/2SM -SN BR BKN010 OVC016 00/M01 A2971 RMK AO2 P0000 T00001011


Wind From 280°
Speed 12 kn.

YouTube Music Video
 
jpsmedia.com for Web Design  worldairports.se 2018   terms of use